createdAt,value
2022-11-04T00:01:42.743Z,9.00
2022-11-04T00:04:30.448Z,9.00
2022-11-04T00:07:34.964Z,8.90
2022-11-04T00:10:42.467Z,8.90
2022-11-04T00:13:30.991Z,8.70
2022-11-04T00:16:35.791Z,8.70
2022-11-04T00:19:23.505Z,8.70
2022-11-04T00:22:28.512Z,8.60
2022-11-04T00:25:30.623Z,8.60
2022-11-04T00:28:38.799Z,8.60
2022-11-04T00:31:46.704Z,8.60
2022-11-04T00:34:34.048Z,8.50
2022-11-04T00:37:21.140Z,8.40
2022-11-04T00:40:10.318Z,8.40
2022-11-04T00:43:05.531Z,8.30
2022-11-04T00:45:53.390Z,8.30
2022-11-04T00:48:42.064Z,8.30
2022-11-04T00:51:31.697Z,8.30
2022-11-04T00:54:19.459Z,8.30
2022-11-04T00:57:06.844Z,8.20
2022-11-04T00:59:54.423Z,8.20
2022-11-04T01:02:41.456Z,8.20
2022-11-04T01:05:31.074Z,8.20
2022-11-04T01:08:19.119Z,8.30
2022-11-04T01:11:07.475Z,8.40
2022-11-04T01:13:55.467Z,8.40
2022-11-04T01:16:43.551Z,8.40
2022-11-04T01:19:31.051Z,8.50
2022-11-04T01:22:19.777Z,8.60
2022-11-04T01:25:08.730Z,8.60
2022-11-04T01:27:56.721Z,8.70
2022-11-04T01:30:44.283Z,8.60
2022-11-04T01:33:31.782Z,8.50
2022-11-04T01:36:18.968Z,8.50
2022-11-04T01:39:07.753Z,8.50
2022-11-04T01:41:55.338Z,8.50
2022-11-04T01:44:50.770Z,8.50
2022-11-04T01:47:41.851Z,8.50
2022-11-04T01:50:32.317Z,8.50
2022-11-04T01:53:34.236Z,8.40
2022-11-04T01:56:23.533Z,8.40
2022-11-04T01:59:13.683Z,8.40
2022-11-04T02:02:01.925Z,8.30
2022-11-04T02:04:50.029Z,8.20
2022-11-04T02:07:37.527Z,8.20
2022-11-04T02:10:26.473Z,8.10
2022-11-04T02:13:14.250Z,8.10
2022-11-04T02:16:07.975Z,8.10
2022-11-04T02:18:57.118Z,8.00
2022-11-04T02:21:54.884Z,8.10
2022-11-04T02:24:48.909Z,8.00
2022-11-04T02:27:41.397Z,8.00
2022-11-04T02:30:32.586Z,7.80
2022-11-04T02:33:22.779Z,7.90
2022-11-04T02:36:12.121Z,7.80
2022-11-04T02:39:06.329Z,7.80
2022-11-04T02:41:55.863Z,7.70
2022-11-04T02:44:46.081Z,7.60
2022-11-04T02:47:37.975Z,7.60
2022-11-04T02:50:29.769Z,7.50
2022-11-04T02:53:20.322Z,7.40
2022-11-04T02:56:08.177Z,7.40
2022-11-04T02:59:02.479Z,7.30
2022-11-04T03:01:51.541Z,7.30
2022-11-04T03:04:41.758Z,7.30
2022-11-04T03:07:33.269Z,7.30
2022-11-04T03:10:24.509Z,7.40
2022-11-04T03:13:14.269Z,7.40
2022-11-04T03:16:03.370Z,7.50
2022-11-04T03:18:57.845Z,7.60
2022-11-04T03:21:48.698Z,7.60
2022-11-04T03:24:36.016Z,7.70
2022-11-04T03:27:25.528Z,7.70
2022-11-04T03:30:14.869Z,7.70
2022-11-04T03:33:05.733Z,7.70
2022-11-04T03:35:53.878Z,7.70
2022-11-04T03:38:43.272Z,7.80
2022-11-04T03:41:33.414Z,7.80
2022-11-04T03:44:20.972Z,7.80
2022-11-04T03:47:09.088Z,7.80
2022-11-04T03:49:58.557Z,7.90
2022-11-04T03:52:46.056Z,7.90
2022-11-04T03:55:40.910Z,8.00
2022-11-04T03:58:54.970Z,8.00
2022-11-04T04:01:48.807Z,8.00
2022-11-04T04:04:38.552Z,8.00
2022-11-04T04:07:30.149Z,8.10
2022-11-04T04:10:37.351Z,8.10
2022-11-04T04:13:36.963Z,8.10
2022-11-04T04:16:29.142Z,8.10
2022-11-04T04:19:19.566Z,8.10
2022-11-04T04:22:10.691Z,8.20
2022-11-04T04:25:18.814Z,8.20
2022-11-04T04:28:07.316Z,8.20
2022-11-04T04:31:00.339Z,8.20
2022-11-04T04:33:48.456Z,8.30
2022-11-04T04:36:41.394Z,8.30
2022-11-04T04:39:51.134Z,8.20
2022-11-04T04:42:56.382Z,8.30
2022-11-04T04:45:46.519Z,8.20
2022-11-04T04:48:35.271Z,8.20
2022-11-04T04:51:23.047Z,8.30
2022-11-04T04:54:10.690Z,8.30
2022-11-04T04:56:58.429Z,8.30
2022-11-04T04:59:45.958Z,8.30
2022-11-04T05:02:33.326Z,8.40
2022-11-04T05:05:22.012Z,8.40
2022-11-04T05:08:10.406Z,8.50
2022-11-04T05:10:59.725Z,8.40
2022-11-04T05:13:46.924Z,8.40
2022-11-04T05:16:39.487Z,8.40
2022-11-04T05:19:27.965Z,8.50
2022-11-04T05:22:17.314Z,8.50
2022-11-04T05:25:05.062Z,8.50
2022-11-04T05:27:53.094Z,8.50
2022-11-04T05:30:41.051Z,8.50
2022-11-04T05:33:28.837Z,8.50
2022-11-04T05:36:17.166Z,8.50
2022-11-04T05:39:06.991Z,8.50
2022-11-04T05:41:55.051Z,8.60
2022-11-04T05:44:42.371Z,8.60
2022-11-04T05:47:29.832Z,8.60
2022-11-04T05:50:19.601Z,8.60
2022-11-04T05:53:07.233Z,8.60
2022-11-04T05:55:56.158Z,8.60
2022-11-04T05:58:44.161Z,8.60
2022-11-04T06:01:32.730Z,8.60
2022-11-04T06:04:22.635Z,8.80
2022-11-04T06:07:10.250Z,8.70
2022-11-04T06:09:57.379Z,8.80
2022-11-04T06:12:46.101Z,8.70
2022-11-04T06:15:33.660Z,8.80
2022-11-04T06:18:20.770Z,9.50
2022-11-04T06:21:09.168Z,8.70
2022-11-04T06:23:58.093Z,8.70
2022-11-04T06:26:45.943Z,8.80
2022-11-04T06:29:40.121Z,8.70
2022-11-04T06:32:27.603Z,8.80
2022-11-04T06:35:15.114Z,8.60
2022-11-04T06:38:02.290Z,8.80
2022-11-04T06:40:50.450Z,8.70
2022-11-04T06:43:38.150Z,8.70
2022-11-04T06:46:28.274Z,8.70
2022-11-04T06:49:16.136Z,8.80
2022-11-04T06:52:03.639Z,8.80
2022-11-04T06:54:51.207Z,8.80
2022-11-04T06:57:38.506Z,8.80
2022-11-04T07:00:26.772Z,8.80
2022-11-04T07:03:15.974Z,8.90
2022-11-04T07:06:07.498Z,8.90
2022-11-04T07:08:55.098Z,8.90
2022-11-04T07:11:42.894Z,8.30
2022-11-04T07:14:31.391Z,9.00
2022-11-04T07:17:18.847Z,9.10
2022-11-04T07:20:08.500Z,9.20
2022-11-04T07:22:56.084Z,9.20
2022-11-04T07:25:43.551Z,9.40
2022-11-04T07:28:32.010Z,9.20
2022-11-04T07:31:19.555Z,9.20
2022-11-04T07:34:06.858Z,9.20
2022-11-04T07:36:55.821Z,9.20
2022-11-04T07:39:42.939Z,9.20
2022-11-04T07:42:31.120Z,9.20
2022-11-04T07:45:25.855Z,9.20
2022-11-04T07:48:14.209Z,9.30
2022-11-04T07:51:02.490Z,9.20
2022-11-04T07:53:52.513Z,9.30
2022-11-04T07:56:39.582Z,9.30
2022-11-04T07:59:28.197Z,9.30
2022-11-04T08:02:18.516Z,9.30
2022-11-04T08:05:09.496Z,9.30
2022-11-04T08:07:57.741Z,9.30
2022-11-04T08:10:47.923Z,9.30
2022-11-04T08:13:36.055Z,9.30
2022-11-04T08:16:27.600Z,9.30
2022-11-04T08:19:18.240Z,9.30
2022-11-04T08:22:05.835Z,9.40
2022-11-04T08:24:53.868Z,9.60
2022-11-04T08:27:42.588Z,9.50
2022-11-04T08:30:30.704Z,9.50
2022-11-04T08:33:18.332Z,9.50
2022-11-04T08:36:07.112Z,9.40
2022-11-04T08:38:55.597Z,9.30
2022-11-04T08:41:45.517Z,9.40
2022-11-04T08:44:34.699Z,9.40
2022-11-04T08:47:22.357Z,9.40
2022-11-04T08:50:11.574Z,9.40
2022-11-04T08:52:59.685Z,9.40
2022-11-04T08:55:46.742Z,9.50
2022-11-04T08:58:34.437Z,9.50
2022-11-04T09:01:23.724Z,9.50
2022-11-04T09:04:12.016Z,9.60
2022-11-04T09:07:02.683Z,9.70
2022-11-04T09:09:54.551Z,9.70
2022-11-04T09:12:43.647Z,9.80
2022-11-04T09:15:31.504Z,9.80
2022-11-04T09:18:20.254Z,9.90
2022-11-04T09:21:08.524Z,9.90
2022-11-04T09:23:56.683Z,9.90
2022-11-04T09:26:44.793Z,9.90
2022-11-04T09:29:33.831Z,10.00
2022-11-04T09:32:21.608Z,10.00
2022-11-04T09:35:11.868Z,10.00
2022-11-04T09:38:01.535Z,10.00
2022-11-04T09:40:52.237Z,10.00
2022-11-04T09:43:47.344Z,10.20
2022-11-04T09:46:35.932Z,10.20
2022-11-04T09:49:24.320Z,10.20
2022-11-04T09:52:19.271Z,10.30
2022-11-04T09:55:13.486Z,10.30
2022-11-04T09:58:02.243Z,10.40
2022-11-04T10:00:52.648Z,10.40
2022-11-04T10:03:54.928Z,10.60
2022-11-04T10:06:49.389Z,10.60
2022-11-04T10:09:44.944Z,10.80
2022-11-04T10:12:41.313Z,10.80
2022-11-04T10:15:40.124Z,10.80
2022-11-04T10:18:37.582Z,10.70
2022-11-04T10:21:33.266Z,10.70
2022-11-04T10:24:25.287Z,10.80
2022-11-04T10:27:17.364Z,10.90
2022-11-04T10:30:08.463Z,10.20
2022-11-04T10:33:00.418Z,11.00
2022-11-04T10:35:49.491Z,11.00
2022-11-04T10:38:39.053Z,11.00
2022-11-04T10:41:29.292Z,11.00
2022-11-04T10:44:22.797Z,11.10
2022-11-04T10:47:15.628Z,11.00
2022-11-04T10:50:33.161Z,11.00
2022-11-04T10:53:21.633Z,11.00
2022-11-04T10:56:18.805Z,11.10
2022-11-04T10:59:20.021Z,10.90
2022-11-04T11:02:10.263Z,10.90
2022-11-04T11:05:13.537Z,10.80
2022-11-04T11:08:00.686Z,10.80
2022-11-04T11:10:52.000Z,10.80
2022-11-04T11:13:40.482Z,10.90
2022-11-04T11:16:30.425Z,10.70
2022-11-04T11:19:20.970Z,10.70
2022-11-04T11:22:28.510Z,10.70
2022-11-04T11:25:25.820Z,10.80
2022-11-04T11:28:21.634Z,10.80
2022-11-04T11:31:14.438Z,10.70
2022-11-04T11:34:03.693Z,10.90
2022-11-04T11:36:53.661Z,10.90
2022-11-04T11:39:45.359Z,11.00
2022-11-04T11:42:32.903Z,10.90
2022-11-04T11:45:23.922Z,11.00
2022-11-04T11:48:30.501Z,11.00
2022-11-04T11:51:29.042Z,11.10
2022-11-04T11:54:25.296Z,11.10
2022-11-04T11:57:25.142Z,11.20
2022-11-04T12:03:31.084Z,11.30
2022-11-04T12:10:01.059Z,11.40
2022-11-04T12:12:56.662Z,11.80
2022-11-04T12:15:50.103Z,11.40
2022-11-04T12:18:46.171Z,11.40
2022-11-04T12:21:35.665Z,11.30
2022-11-04T12:24:30.111Z,11.20
2022-11-04T12:27:23.452Z,11.10
2022-11-04T12:30:13.585Z,11.10
2022-11-04T12:33:08.205Z,11.10
2022-11-04T12:36:04.338Z,11.10
2022-11-04T12:39:08.274Z,11.00
2022-11-04T12:45:19.691Z,11.20
2022-11-04T12:48:11.014Z,11.60
2022-11-04T12:51:02.638Z,11.30
2022-11-04T12:53:58.437Z,11.30
2022-11-04T12:56:48.803Z,11.30
2022-11-04T12:59:46.036Z,11.40
2022-11-04T13:02:36.902Z,11.60
2022-11-04T13:05:35.341Z,11.50
2022-11-04T13:08:26.523Z,11.60
2022-11-04T13:11:26.668Z,11.70
2022-11-04T13:14:19.265Z,11.90
2022-11-04T13:17:08.803Z,12.00
2022-11-04T13:19:58.709Z,12.00
2022-11-04T13:22:47.725Z,12.20
2022-11-04T13:25:38.389Z,12.20
2022-11-04T13:28:26.758Z,12.10
2022-11-04T13:31:21.459Z,12.20
2022-11-04T13:34:13.176Z,12.50
2022-11-04T13:37:07.363Z,12.50
2022-11-04T13:39:58.573Z,12.40
2022-11-04T13:42:53.641Z,12.80
2022-11-04T13:45:47.319Z,12.10
2022-11-04T13:48:37.932Z,12.00
2022-11-04T13:51:34.512Z,11.80
2022-11-04T13:54:28.860Z,11.70
2022-11-04T13:57:17.382Z,11.70
2022-11-04T14:00:23.705Z,11.60
2022-11-04T14:03:44.246Z,11.50
2022-11-04T14:06:50.345Z,11.60
2022-11-04T14:09:53.691Z,11.50
2022-11-04T14:12:42.076Z,11.50
2022-11-04T14:15:48.061Z,11.70
2022-11-04T14:18:36.897Z,11.90
2022-11-04T14:21:26.396Z,12.40
2022-11-04T14:24:16.429Z,12.80
2022-11-04T14:27:07.447Z,13.00
2022-11-04T14:29:54.697Z,13.00
2022-11-04T14:32:42.941Z,12.70
2022-11-04T14:35:31.699Z,12.40
2022-11-04T14:38:23.967Z,12.40
2022-11-04T14:41:22.152Z,11.80
2022-11-04T14:44:16.593Z,11.50
2022-11-04T14:47:15.369Z,11.20
2022-11-04T14:50:04.810Z,11.80
2022-11-04T14:52:55.382Z,10.80
2022-11-04T14:55:42.796Z,10.70
2022-11-04T14:58:30.600Z,10.60
2022-11-04T15:01:20.478Z,10.60
2022-11-04T15:04:13.323Z,10.60
2022-11-04T15:07:02.844Z,10.60
2022-11-04T15:09:52.516Z,10.40
2022-11-04T15:12:55.313Z,10.40
2022-11-04T15:15:44.767Z,10.50
2022-11-04T15:18:38.315Z,10.40
2022-11-04T15:21:26.910Z,10.70
2022-11-04T15:24:17.611Z,10.40
2022-11-04T15:27:07.695Z,10.50
2022-11-04T15:29:56.636Z,10.50
2022-11-04T15:32:56.670Z,10.40
2022-11-04T15:35:46.142Z,10.40
2022-11-04T15:38:33.983Z,10.30
2022-11-04T15:41:40.293Z,10.30
2022-11-04T15:44:32.877Z,10.30
2022-11-04T15:47:24.927Z,10.20
2022-11-04T15:50:26.232Z,10.30
2022-11-04T15:53:20.558Z,10.50
2022-11-04T15:56:08.201Z,10.20
2022-11-04T15:58:57.242Z,10.20
2022-11-04T16:01:46.873Z,10.20
2022-11-04T16:04:34.981Z,10.20
2022-11-04T16:07:23.814Z,10.20
2022-11-04T16:10:30.323Z,10.10
2022-11-04T16:13:25.872Z,10.00
2022-11-04T16:16:20.532Z,10.00
2022-11-04T16:19:20.324Z,9.90
2022-11-04T16:22:11.397Z,9.90
2022-11-04T16:25:00.239Z,9.80
2022-11-04T16:27:48.343Z,9.70
2022-11-04T16:30:37.681Z,9.80
2022-11-04T16:33:27.231Z,9.80
2022-11-04T16:36:23.479Z,9.70
2022-11-04T16:39:10.572Z,9.70
2022-11-04T16:41:58.785Z,9.60
2022-11-04T16:44:50.509Z,9.60
2022-11-04T16:47:40.907Z,9.60
2022-11-04T16:50:33.861Z,9.60
2022-11-04T16:53:21.799Z,9.60
2022-11-04T16:56:11.311Z,9.60
2022-11-04T16:58:59.262Z,9.60
2022-11-04T17:01:47.308Z,9.50
2022-11-04T17:04:36.655Z,9.50
2022-11-04T17:07:40.533Z,9.50
2022-11-04T17:10:33.527Z,9.50
2022-11-04T17:13:21.469Z,9.50
2022-11-04T17:16:11.726Z,9.40
2022-11-04T17:18:59.153Z,9.40
2022-11-04T17:21:47.911Z,9.40
2022-11-04T17:24:35.444Z,9.40
2022-11-04T17:27:23.313Z,9.40
2022-11-04T17:30:14.421Z,9.30
2022-11-04T17:33:06.480Z,9.40
2022-11-04T17:35:54.604Z,9.40
2022-11-04T17:38:43.904Z,9.50
2022-11-04T17:41:49.417Z,9.30
2022-11-04T17:44:37.445Z,9.30
2022-11-04T17:47:25.300Z,9.30
2022-11-04T17:50:12.824Z,9.30
2022-11-04T17:53:00.351Z,9.20
2022-11-04T17:55:49.035Z,9.20
2022-11-04T17:58:37.201Z,9.20
2022-11-04T18:01:25.935Z,9.20
2022-11-04T18:04:15.113Z,9.20
2022-11-04T18:07:03.255Z,9.10
2022-11-04T18:09:50.880Z,9.10
2022-11-04T18:12:41.591Z,9.10
2022-11-04T18:15:29.359Z,9.00
2022-11-04T18:18:17.194Z,9.10
2022-11-04T18:21:07.487Z,9.10
2022-11-04T18:23:58.705Z,9.00
2022-11-04T18:26:46.201Z,9.00
2022-11-04T18:29:35.108Z,8.90
2022-11-04T18:32:22.521Z,8.90
2022-11-04T18:35:10.833Z,8.80
2022-11-04T18:37:59.983Z,8.80
2022-11-04T18:40:48.204Z,8.70
2022-11-04T18:43:36.381Z,8.70
2022-11-04T18:46:25.200Z,8.70
2022-11-04T18:49:13.308Z,8.70
2022-11-04T18:52:01.454Z,8.60
2022-11-04T18:54:48.990Z,8.60
2022-11-04T18:57:39.008Z,8.50
2022-11-04T19:00:26.317Z,8.50
2022-11-04T19:03:15.271Z,8.50
2022-11-04T19:06:05.918Z,8.40
2022-11-04T19:08:53.840Z,8.40
2022-11-04T19:11:42.937Z,8.40
2022-11-04T19:14:30.297Z,8.30
2022-11-04T19:17:18.440Z,8.20
2022-11-04T19:20:12.707Z,8.20
2022-11-04T19:23:00.586Z,8.10
2022-11-04T19:25:50.960Z,8.00
2022-11-04T19:28:47.753Z,8.00
2022-11-04T19:31:38.571Z,7.90
2022-11-04T19:34:26.688Z,7.90
2022-11-04T19:37:15.409Z,7.80
2022-11-04T19:40:06.342Z,7.80
2022-11-04T19:43:07.639Z,7.80
2022-11-04T19:46:00.035Z,7.80
2022-11-04T19:48:51.742Z,7.80
2022-11-04T19:51:39.851Z,7.80
2022-11-04T19:54:29.803Z,7.80
2022-11-04T19:57:17.892Z,7.80
2022-11-04T20:00:06.723Z,7.80
2022-11-04T20:02:58.820Z,7.80
2022-11-04T20:05:47.246Z,7.80
2022-11-04T20:08:36.270Z,7.80
2022-11-04T20:11:26.641Z,7.80
2022-11-04T20:14:13.656Z,7.90
2022-11-04T20:17:02.819Z,7.60
2022-11-04T20:19:50.818Z,7.90
2022-11-04T20:22:38.316Z,7.80
2022-11-04T20:25:25.808Z,7.80
2022-11-04T20:28:15.314Z,7.80
2022-11-04T20:31:02.822Z,7.80
2022-11-04T20:33:51.057Z,7.80
2022-11-04T20:36:38.744Z,7.70
2022-11-04T20:39:26.531Z,7.70
2022-11-04T20:42:14.765Z,7.70
2022-11-04T20:45:04.387Z,7.70
2022-11-04T20:47:53.775Z,7.60
2022-11-04T20:50:41.134Z,7.60
2022-11-04T20:53:30.714Z,7.50
2022-11-04T20:56:20.759Z,7.50
2022-11-04T20:59:09.520Z,7.50
2022-11-04T21:01:59.157Z,7.50
2022-11-04T21:04:47.189Z,7.50
2022-11-04T21:07:36.571Z,7.50
2022-11-04T21:10:24.495Z,7.60
2022-11-04T21:13:12.148Z,7.60
2022-11-04T21:16:01.383Z,7.70
2022-11-04T21:18:50.252Z,7.80
2022-11-04T21:21:37.813Z,7.80
2022-11-04T21:24:25.164Z,7.80
2022-11-04T21:27:12.522Z,7.80
2022-11-04T21:30:00.661Z,7.80
2022-11-04T21:32:48.603Z,7.90
2022-11-04T21:35:40.287Z,7.90
2022-11-04T21:38:29.017Z,8.00
2022-11-04T21:41:17.237Z,8.00
2022-11-04T21:44:08.413Z,8.10
2022-11-04T21:46:55.972Z,8.00
2022-11-04T21:49:43.903Z,8.10
2022-11-04T21:52:32.799Z,8.10
2022-11-04T21:55:20.804Z,8.10
2022-11-04T21:58:08.353Z,8.10
2022-11-04T22:00:57.882Z,8.10
2022-11-04T22:03:49.893Z,8.10
2022-11-04T22:06:37.620Z,8.10
2022-11-04T22:09:26.337Z,8.00
2022-11-04T22:12:14.194Z,8.00
2022-11-04T22:15:02.089Z,7.90
2022-11-04T22:17:49.961Z,7.90
2022-11-04T22:20:37.668Z,7.90
2022-11-04T22:23:25.350Z,7.80
2022-11-04T22:26:15.334Z,7.80
2022-11-04T22:29:03.426Z,6.40
2022-11-04T22:31:51.354Z,7.70
2022-11-04T22:34:39.455Z,7.60
2022-11-04T22:37:26.877Z,7.60
2022-11-04T22:40:15.307Z,7.40
2022-11-04T22:43:05.724Z,7.50
2022-11-04T22:45:53.908Z,7.50
2022-11-04T22:48:41.861Z,7.50
2022-11-04T22:51:31.412Z,7.50
2022-11-04T22:54:19.604Z,7.40
2022-11-04T22:57:07.958Z,7.40
2022-11-04T22:59:57.493Z,7.30
2022-11-04T23:02:45.723Z,7.30
2022-11-04T23:05:34.326Z,7.30
2022-11-04T23:08:21.605Z,7.30
2022-11-04T23:11:27.714Z,7.20
2022-11-04T23:14:33.161Z,7.10
2022-11-04T23:17:40.724Z,7.10
2022-11-04T23:20:29.903Z,7.10
2022-11-04T23:23:34.559Z,7.10
2022-11-04T23:26:27.489Z,7.00
2022-11-04T23:29:33.423Z,6.90
2022-11-04T23:32:27.403Z,6.90
2022-11-04T23:35:46.905Z,6.90
2022-11-04T23:38:35.787Z,6.80
2022-11-04T23:41:41.451Z,6.70
2022-11-04T23:44:48.841Z,6.70
2022-11-04T23:47:56.237Z,6.70
2022-11-04T23:51:01.187Z,6.70
2022-11-04T23:54:06.526Z,6.70
2022-11-04T23:57:11.884Z,6.70
